»·PEaware :: DFGCW W28-KALW

DFGCW :: W28-KALW

FLIGHT INFORMATION

Flight Status: Arrived
Operator: Unknown
More flights by this operator :: More flights under this callsign
Pilot: Klaus A. (15485)
Aircraft: PILATUS PC-12 EAGLE
(PC12)
More flights by this aircraft type
Origin: W28 Sequim Valley
United States
Destination: KALW Walla Walla Regl
United States
More flights between these airports :: More routes between these airports
Route: JAWBN V495 SEA V4 YKM V204 PSC V520 ALW
File this flight plan on PilotEdge
Remarks:
Altitude:
(Current/Filed)
23,000ft
Speed:
(Current/Filed)
230kts
Departed: 12-May-20 08:37 AM
Arrived: 12-May-20 09:54 AM
Distance/Time
Traveled:
234nm/1:17
Distance/Time
To Go:
Arrived

Flight Plot

Page will automatically refresh every two minutes.

Flight plan parsing failed; only flown route is shown


Map Options




Map Legend


Flown Route
Filed Route
Departure Airport
Arrival Airport
Navaid (VOR, NDB)
Fix

Horizontal Profiles

Position Reports

Time Latitude Longitude Heading Altitude Ground
Speed
12-May-20 08:13 48.098251 -123.186720 195 149ft 0kts
12-May-20 08:15 48.098251 -123.186720 195 149ft 0kts
12-May-20 08:16 48.098251 -123.186720 195 149ft 0kts
12-May-20 08:16 48.098251 -123.186720 195 149ft 0kts
12-May-20 08:17 48.098251 -123.186720 195 149ft 0kts
12-May-20 08:18 48.098251 -123.186720 195 149ft 0kts
12-May-20 08:20 48.098251 -123.186721 194 149ft 0kts
12-May-20 08:20 48.098250 -123.186721 194 149ft 0kts
12-May-20 08:21 48.098251 -123.186721 194 149ft 0kts
12-May-20 08:22 48.098251 -123.186721 194 149ft 0kts
12-May-20 08:23 48.098251 -123.186721 194 149ft 0kts
12-May-20 08:24 48.098251 -123.186721 194 149ft 0kts
12-May-20 08:25 48.098251 -123.186721 194 149ft 0kts
12-May-20 08:26 48.098251 -123.186721 194 149ft 0kts
12-May-20 08:27 48.098251 -123.186721 194 149ft 0kts
12-May-20 08:28 48.098251 -123.186721 194 149ft 0kts
12-May-20 08:29 48.097790 -123.187019 260 149ft 6kts
12-May-20 08:30 48.099094 -123.193620 287 149ft 13kts
12-May-20 08:31 48.099269 -123.194482 133 149ft 0kts
12-May-20 08:32 48.099260 -123.194457 114 149ft 0kts
12-May-20 08:33 48.099260 -123.194457 114 149ft 0kts
12-May-20 08:34 48.099260 -123.194457 114 149ft 0kts
12-May-20 08:35 48.099257 -123.194450 121 149ft 0kts
12-May-20 08:36 48.094944 -123.164524 104 880ft 114kts
12-May-20 08:37 48.085858 -123.114114 105 2740ft 131kts
12-May-20 08:38 48.077969 -123.057439 99 4621ft 142kts
12-May-20 08:39 48.063426 -123.001634 110 6474ft 150kts
12-May-20 08:40 48.051886 -122.938235 105 8030ft 166kts
12-May-20 08:41 48.039387 -122.875648 98 9742ft 160kts
12-May-20 08:42 48.011763 -122.815769 143 10860ft 201kts
12-May-20 08:43 47.963291 -122.774072 153 12257ft 201kts
12-May-20 08:44 47.913973 -122.732435 153 13461ft 206kts
12-May-20 08:45 47.864844 -122.691203 154 14525ft 209kts
12-May-20 08:46 47.815413 -122.649878 153 15596ft 212kts
12-May-20 08:47 47.764651 -122.607592 154 16702ft 215kts
12-May-20 08:48 47.714681 -122.556573 147 17707ft 220kts
12-May-20 08:49 47.662786 -122.507678 152 18604ft 223kts
12-May-20 08:50 47.609006 -122.460564 152 19411ft 226kts
12-May-20 08:51 47.554133 -122.412730 152 20144ft 230kts
12-May-20 08:52 47.498648 -122.364437 152 20873ft 233kts
12-May-20 08:53 47.442472 -122.315586 151 21519ft 236kts
12-May-20 08:54 47.404752 -122.237125 111 22073ft 242kts
12-May-20 08:55 47.368864 -122.153436 129 22589ft 245kts
12-May-20 08:56 47.327909 -122.070481 124 22783ft 259kts
12-May-20 08:57 47.286626 -121.979799 123 22781ft 272kts
12-May-20 08:58 47.244087 -121.886062 123 22780ft 278kts
12-May-20 08:59 47.200775 -121.791090 123 22780ft 280kts
12-May-20 09:00 47.157207 -121.695891 123 22808ft 281kts
12-May-20 09:01 47.113442 -121.600598 123 22809ft 282kts
12-May-20 09:02 47.069296 -121.504802 123 22809ft 283kts
12-May-20 09:03 47.025093 -121.409219 123 22810ft 283kts
12-May-20 09:04 46.981587 -121.315469 124 22806ft 283kts
12-May-20 09:05 46.937111 -121.219966 124 22806ft 283kts
12-May-20 09:06 46.892612 -121.124736 124 22763ft 284kts
12-May-20 09:07 46.848037 -121.029654 124 22749ft 283kts
12-May-20 09:08 46.803586 -120.935175 124 22750ft 282kts
12-May-20 09:09 46.759264 -120.841296 124 22778ft 281kts
12-May-20 09:10 46.714949 -120.747725 124 22778ft 281kts
12-May-20 09:11 46.670241 -120.653675 124 22779ft 282kts
12-May-20 09:12 46.625642 -120.560154 124 22779ft 282kts
12-May-20 09:13 46.580779 -120.466400 124 22757ft 283kts
12-May-20 09:14 46.549972 -120.362792 103 22774ft 280kts
12-May-20 09:15 46.527458 -120.255007 106 22777ft 280kts
12-May-20 09:16 46.503232 -120.147383 106 22746ft 281kts
12-May-20 09:17 46.477964 -120.036693 106 21764ft 294kts
12-May-20 09:18 46.452601 -119.926025 107 20756ft 281kts
12-May-20 09:19 46.428264 -119.820094 107 19757ft 275kts
12-May-20 09:20 46.403848 -119.714649 107 18766ft 275kts
12-May-20 09:21 46.379533 -119.610031 107 17778ft 273kts
12-May-20 09:22 46.362452 -119.504208 89 16791ft 270kts
12-May-20 09:23 46.360488 -119.395394 89 15806ft 270kts
12-May-20 09:24 46.358201 -119.286763 89 14814ft 270kts
12-May-20 09:25 46.355910 -119.184518 89 13773ft 237kts
12-May-20 09:26 46.353547 -119.092580 89 12751ft 221kts
12-May-20 09:27 46.351116 -119.005613 89 11743ft 213kts
12-May-20 09:28 46.348403 -118.920749 89 10742ft 209kts
12-May-20 09:29 46.345311 -118.837123 89 9750ft 208kts
12-May-20 09:30 46.342887 -118.753501 76 8748ft 206kts
12-May-20 09:31 46.356008 -118.674003 74 7774ft 201kts
12-May-20 09:32 46.372787 -118.597388 74 6780ft 198kts
12-May-20 09:33 46.390166 -118.522341 73 5778ft 195kts
12-May-20 09:34 46.407300 -118.448621 73 4996ft 182kts
12-May-20 09:35 46.423667 -118.378953 73 5001ft 184kts
12-May-20 09:36 46.440015 -118.309177 74 5000ft 186kts
12-May-20 09:37 46.456914 -118.236854 74 5007ft 200kts
12-May-20 09:38 46.475434 -118.155972 74 5002ft 218kts
12-May-20 09:39 46.486611 -118.071797 128 4996ft 205kts
12-May-20 09:40 46.438901 -118.059756 184 4547ft 176kts
12-May-20 09:41 46.394850 -118.063268 185 4573ft 148kts
12-May-20 09:42 46.350747 -118.068381 0 4493ft 0kts
12-May-20 09:43 46.305149 -118.072121 190 4499ft 170kts
12-May-20 09:44 46.271285 -118.096759 209 4428ft 105kts
12-May-20 09:45 46.246868 -118.121013 216 4509ft 107kts
12-May-20 09:46 46.224021 -118.145209 214 4213ft 104kts
12-May-20 09:47 46.200140 -118.170380 214 3689ft 107kts
12-May-20 09:48 46.175984 -118.195979 215 3132ft 109kts
12-May-20 09:49 46.151417 -118.221896 213 2463ft 105kts
12-May-20 09:50 46.130020 -118.244478 213 1942ft 87kts
12-May-20 09:52 46.110956 -118.264712 213 1522ft 84kts
12-May-20 09:53 46.093170 -118.283344 217 1210ft 52kts
12-May-20 09:54 46.090396 -118.285751 131 1210ft 8kts
12-May-20 09:55 46.090807 -118.282432 101 1210ft 10kts
12-May-20 09:56 46.090675 -118.281375 113 1210ft 0kts
12-May-20 09:57 46.090675 -118.281375 113 1210ft 0kts
12-May-20 09:58 46.090675 -118.281375 113 1210ft 0kts
12-May-20 09:59 46.090675 -118.281375 113 1210ft 0kts
12-May-20 10:00 46.090675 -118.281375 113 1210ft 0kts
12-May-20 10:01 46.090675 -118.281375 113 1210ft 0kts

Navigation Log

Ident Type
Flight plan parsing failed, navigation log unavailable